Latest Weather Observations for Southern Cross Airport

IDW60801

Issued at 4:41 pm WST Saturday 18 April 2015 (issued every 30 minutes, with the page automatically refreshed every 10 minutes)

About weather observations | Map of weather stations | Latest weather observations for WA | Other Formats
Station Details ID: 012320 Name: SOUTHERN CROSS AIRFIELD Lat: -31.24 Lon: 119.36 Height: 347.4 m
Data from the previous 72 hours. | See also: Recent months at Southern Cross Airport
Date/Time
WST
Temp
°C
App
Temp
°C
Dew
Point
Rel
Hum
%
Delta-T
°C
Wind Press
QNH
hPa
Press
MSL
hPa
Rain
since 9 am
mm
Dir
 
Spd
km/h
Gust
km/h
Spd
kts
Gust
kts
18/04:30pm 24.3 19.8 4.1 27 10.1 E 17 22 9 12 1023.2 1022.2 0.0
18/04:00pm 24.3 19.8 4.1 27 10.1 E 17 22 9 12 1023.2 1022.2 0.0
18/03:30pm 24.9 20.4 4.1 26 10.5 ESE 17 22 9 12 1023.2 1022.2 0.0
18/03:00pm 24.7 20.5 3.9 26 10.4 ENE 15 22 8 12 1023.2 1022.2 0.0
18/02:30pm 24.5 20.0 4.3 27 10.2 E 17 28 9 15 1023.3 1022.3 0.0
18/02:00pm 23.9 19.5 4.8 29 9.7 ESE 17 26 9 14 1023.4 1022.4 0.0
18/01:30pm 23.5 19.7 5.9 32 9.1 ESE 15 24 8 13 1023.5 1022.5 0.0
18/01:00pm 23.0 18.7 5.4 32 8.9 E 17 24 9 13 1023.9 1022.8 0.0
18/12:30pm 22.6 18.8 6.0 34 8.5 ESE 15 26 8 14 1024.3 1023.2 0.0
18/12:00pm 22.3 18.9 6.1 35 8.3 ENE 13 19 7 10 1024.8 1023.8 0.0
18/11:30am 21.4 18.0 5.7 36 7.9 E 13 19 7 10 1025.2 1024.2 0.0
18/11:00am 20.5 16.4 6.4 40 7.2 E 17 24 9 13 1025.5 1024.5 0.0
18/10:30am 20.2 17.2 7.9 45 6.4 ESE 13 20 7 11 1025.8 1024.8 0.0
18/10:00am 18.9 15.5 7.7 48 5.8 E 15 20 8 11 1026.0 1025.0 0.0
18/09:30am 17.4 13.3 7.7 53 5.0 E 19 28 10 15 1026.0 1025.0 0.0
18/09:00am 16.3 11.7 8.0 58 4.2 E 22 30 12 16 1026.1 1025.1 0.0
18/08:30am 15.4 10.0 8.2 62 3.7 ESE 26 35 14 19 1025.9 1024.9 0.0
18/08:00am 13.9 8.9 8.1 68 2.9 SE 24 30 13 16 1025.7 1024.7 0.0
18/07:30am 12.0 6.9 7.5 74 2.2 SE 24 28 13 15 1025.0 1024.0 0.0
18/07:00am 10.9 6.4 7.0 77 1.9 SE 20 24 11 13 1024.5 1023.4 0.0
18/06:30am 9.9 5.8 6.4 79 1.7 SSE 17 19 9 10 1024.3 1023.2 0.0
18/06:00am 9.8 6.0 6.0 77 1.8 SSE 15 17 8 9 1023.9 1022.8 0.0
18/05:30am 10.1 6.3 5.7 74 2.1 SSE 15 17 8 9 1023.6 1022.6 0.0
18/05:00am 10.6 6.7 5.4 70 2.4 SSE 15 19 8 10 1023.3 1022.3 0.0
18/04:30am 9.5 5.7 5.7 77 1.8 S 15 17 8 9 1023.0 1022.0 0.0
18/04:00am 9.8 6.8 6.0 77 1.8 S 11 13 6 7 1022.6 1021.6 0.0
18/03:30am 9.6 7.5 5.6 76 1.9 N 6 7 3 4 1022.6 1021.6 0.0
18/03:00am 10.6 7.9 5.4 70 2.4 NE 9 13 5 7 1022.6 1021.6 0.0
18/02:30am 10.0 7.7 5.8 75 2.0 S 7 11 4 6 1022.5 1021.5 0.0
18/02:00am 10.1 7.6 6.4 78 1.8 S 9 13 5 7 1022.5 1021.5 0.0
18/01:30am 8.9 6.9 6.2 83 1.3 SSE 6 7 3 4 1022.5 1021.5 0.0
18/01:00am 9.8 7.9 6.5 80 1.6 SSE 6 7 3 4 1022.7 1021.7 0.0
18/12:30am 9.9 9.1 6.6 80 1.6 CALM 0 0 0 0 1022.5 1021.5 0.0
18/12:00am 10.4 9.6 6.4 76 1.9 CALM 0 0 0 0 1022.5 1021.5 0.0
 
Date/Time
WST
Temp
°C
App
Temp
°C
Dew
Point
Rel
Hum
%
Delta-T
°C
Wind Press
QNH
hPa
Press
MSL
hPa
Rain
since 9 am
mm
Dir
 
Spd
km/h
Gust
km/h
Spd
kts
Gust
kts
17/11:30pm 11.8 11.0 6.3 69 2.6 CALM 0 0 0 0 1022.7 1021.7 0.0
17/11:00pm 11.9 11.2 6.8 71 2.5 CALM 0 0 0 0 1022.8 1021.8 0.0
17/10:30pm 12.0 11.4 7.5 74 2.2 CALM 0 0 0 0 1022.9 1021.9 0.0
17/10:00pm 12.4 10.6 7.1 70 2.6 SSE 6 7 3 4 1022.8 1021.8 0.0
17/09:30pm 13.0 11.1 7.5 69 2.7 SSE 7 9 4 5 1022.8 1021.8 0.0
17/09:00pm 13.5 12.6 6.1 61 3.6 CALM 0 0 0 0 1022.8 1021.8 0.0
17/08:30pm 14.1 12.4 5.7 57 4.0 SSW 4 6 2 3 1022.8 1021.8 0.0
17/08:00pm 16.1 14.2 6.5 53 4.8 SSW 6 6 3 3 1022.6 1021.6 0.0
17/07:30pm 15.8 13.4 6.8 55 4.5 SSW 9 11 5 6 1022.6 1021.6 0.0
17/07:00pm 17.5 16.0 6.7 49 5.4 SSW 4 7 2 4 1022.4 1021.4 0.0
17/06:30pm 17.4 15.2 6.3 48 5.6 SSW 7 9 4 5 1021.9 1020.8 0.0
17/06:00pm 19.8 17.1 5.5 39 7.1 S 9 11 5 6 1021.6 1020.5 0.0
17/05:30pm 21.2 17.4 3.9 32 8.5 S 13 17 7 9 1021.3 1020.2 0.0
17/05:00pm 22.0 17.8 3.6 30 9.0 S 15 20 8 11 1021.2 1020.1 0.0
17/04:30pm 22.2 18.2 4.7 32 8.8 S 15 20 8 11 1021.1 1020.0 0.0
17/04:00pm 22.8 18.8 4.8 31 9.0 SSW 15 20 8 11 1021.4 1020.3 0.0
17/03:30pm 22.5 19.2 4.5 31 9.0 S 11 17 6 9 1021.5 1020.4 0.0
17/03:00pm 22.6 19.5 7.2 37 8.1 SSW 13 20 7 11 1021.9 1020.8 0.0
17/02:30pm 22.5 20.2 5.0 32 8.8 SSW 6 13 3 7 1022.0 1020.9 0.0
17/02:00pm 21.8 19.3 4.8 33 8.5 SE 7 13 4 7 1022.3 1021.3 0.0
17/01:30pm 21.2 18.9 5.5 36 7.9 WSW 7 15 4 8 1022.6 1021.6 0.0
17/01:00pm 21.1 19.0 6.6 39 7.4 NE 7 11 4 6 1023.1 1022.1 0.0
17/12:30pm 20.3 18.1 7.7 44 6.6 WNW 9 13 5 7 1023.9 1022.8 0.0
17/12:00pm 20.0 18.3 8.4 47 6.1 NW 7 13 4 7 1024.5 1023.4 0.0
17/11:30am 19.3 17.3 8.6 50 5.7 WNW 9 13 5 7 1025.2 1024.2 0.0
17/11:00am 18.8 17.3 9.0 53 5.2 NE 7 15 4 8 1025.8 1024.8 0.0
17/10:30am 17.8 15.1 8.9 56 4.7 N 13 19 7 10 1026.2 1025.2 0.0
17/10:00am 16.9 13.5 9.3 61 4.0 N 17 24 9 13 1026.4 1025.4 0.0
17/09:30am 16.0 13.0 9.2 64 3.6 NNE 15 19 8 10 1026.9 1025.8 0.0
17/09:00am 14.9 11.7 8.6 66 3.2 NNE 15 19 8 10 1027.2 1026.1 0.0
17/08:30am 13.8 11.3 8.4 70 2.8 N 11 19 6 10 1027.1 1026.0 0.0
17/08:00am 12.5 10.3 7.8 73 2.3 NE 9 13 5 7 1027.2 1026.1 0.0
17/07:30am 10.2 9.5 6.9 80 1.6 CALM 0 6 0 3 1027.1 1026.0 0.0
17/07:00am 8.0 7.1 6.1 88 0.9 CALM 0 0 0 0 1026.9 1025.8 0.0
17/06:30am 7.6 6.2 5.4 86 1.0 ESE 2 7 1 4 1026.9 1025.8 0.0
17/06:00am 7.9 5.7 5.5 85 1.1 W 6 7 3 4 1026.8 1025.7 0.0
17/05:30am 9.4 7.1 5.6 77 1.8 ESE 7 13 4 7 1026.6 1025.6 0.0
17/05:00am 8.5 5.7 5.1 79 1.5 SSE 9 13 5 7 1026.6 1025.6 0.0
17/04:30am 9.7 7.4 5.7 76 1.9 SE 7 9 4 5 1026.6 1025.6 0.0
17/04:00am 9.9 6.8 5.7 75 2.0 SSE 11 13 6 7 1026.5 1025.5 0.0
17/03:30am 10.2 6.8 5.8 74 2.1 SE 13 17 7 9 1026.4 1025.4 0.0
17/03:00am 10.2 6.7 5.6 73 2.1 SE 13 19 7 10 1026.8 1025.7 0.0
17/02:30am 10.6 7.1 5.6 71 2.3 ESE 13 19 7 10 1027.1 1026.0 0.0
17/02:00am 10.9 6.7 5.7 70 2.4 SE 17 19 9 10 1027.4 1026.4 0.0
17/01:30am 11.7 9.0 5.6 66 2.9 ESE 9 13 5 7 1027.4 1026.4 0.0
17/01:00am 11.9 8.4 5.5 65 3.0 E 13 19 7 10 1027.6 1026.6 0.0
17/12:30am 11.7 9.3 5.1 64 3.1 ESE 7 11 4 6 1027.6 1026.6 0.0
17/12:00am 12.4 9.2 5.1 61 3.4 E 11 15 6 8 1027.8 1026.8 0.0
 
Date/Time
WST
Temp
°C
App
Temp
°C
Dew
Point
Rel
Hum
%
Delta-T
°C
Wind Press
QNH
hPa
Press
MSL
hPa
Rain
since 9 am
mm
Dir
 
Spd
km/h
Gust
km/h
Spd
kts
Gust
kts
16/11:30pm 13.1 9.1 5.0 58 3.8 E 15 20 8 11 1027.7 1026.7 0.0
16/11:00pm 13.3 9.0 5.2 58 3.8 ESE 17 20 9 11 1027.8 1026.8 0.0
16/10:30pm 13.3 9.7 5.2 58 3.8 ESE 13 20 7 11 1028.0 1027.0 0.0
16/10:00pm 12.7 8.9 5.6 62 3.4 SE 15 17 8 9 1028.1 1027.1 0.0
16/09:30pm 13.1 10.4 5.8 61 3.5 SE 9 11 5 6 1028.3 1027.3 0.0
16/09:00pm 14.1 11.0 5.5 56 4.1 ESE 11 15 6 8 1028.2 1027.2 0.0
16/08:30pm 14.2 10.5 6.1 58 3.9 SE 15 17 8 9 1028.3 1027.3 0.0
16/08:00pm 15.1 12.5 6.1 55 4.4 ESE 9 13 5 7 1028.1 1027.1 0.0
16/07:30pm 15.5 12.5 6.2 54 4.6 SE 11 13 6 7 1028.2 1027.2 0.0
16/07:00pm 16.4 13.4 6.0 50 5.1 SE 11 13 6 7 1027.7 1026.7 0.0
16/06:30pm 17.8 14.7 5.4 44 6.1 ESE 11 15 6 8 1027.4 1026.4 0.0
16/06:00pm 18.7 15.1 5.2 41 6.6 ESE 13 17 7 9 1027.2 1026.1 0.0
16/05:30pm 19.7 14.0 5.0 38 7.3 SE 24 30 13 16 1026.9 1025.8 0.0
16/05:00pm 20.7 15.0 4.7 35 7.9 SE 24 30 13 16 1026.8 1025.7 0.0
16/04:30pm 21.0 15.8 5.4 36 7.9 SE 22 28 12 15 1026.6 1025.6 0.0
16/04:00pm 21.3 16.1 5.6 36 7.9 SE 22 33 12 18 1026.5 1025.5 0.0
16/03:30pm 21.2 16.7 5.9 37 7.8 SE 19 28 10 15 1026.5 1025.5 0.0
16/03:00pm 21.1 16.4 6.2 38 7.6 ESE 20 28 11 15 1026.5 1025.5 0.0
16/02:30pm 20.9 16.4 6.8 40 7.3 SE 20 28 11 15 1027.0 1025.9 0.0
16/02:00pm 20.6 16.2 6.5 40 7.2 SE 19 33 10 18 1027.4 1026.4 0.0
16/01:30pm 20.3 15.7 6.6 41 7.0 SE 20 28 11 15 1027.9 1026.9 0.0
16/01:00pm 19.5 15.5 6.6 43 6.5 SE 17 26 9 14 1028.3 1027.3 0.0
16/12:30pm 18.9 14.5 6.4 44 6.3 SE 19 26 10 14 1028.9 1027.9 0.0
16/12:00pm 18.6 14.1 6.1 44 6.2 SE 19 26 10 14 1029.6 1028.6 0.0
16/11:30am 17.8 14.0 5.7 45 6.0 SE 15 22 8 12 1030.3 1029.3 0.0
16/11:00am 17.6 14.1 5.5 45 5.9 ESE 13 20 7 11 1030.5 1029.5 0.0
16/10:30am 16.5 12.3 5.5 48 5.4 ESE 17 24 9 13 1030.2 1029.2 0.0
16/10:00am 15.9 11.1 5.5 50 5.0 ESE 20 26 11 14 1030.6 1029.6 0.0
16/09:30am 15.3 10.7 5.8 53 4.6 E 19 26 10 14 1030.6 1029.6 0.0
16/09:00am 14.5 9.7 5.6 55 4.3 E 20 30 11 16 1030.8 1029.8 0.0
16/08:30am 13.7 9.1 6.3 61 3.6 E 20 28 11 15 1030.3 1029.3 0.0
16/08:00am 12.4 8.7 6.5 67 2.8 ESE 15 24 8 13 1030.5 1029.5 0.0
16/07:30am 11.1 7.6 7.4 78 1.8 SE 15 20 8 11 1030.3 1029.3 0.0
16/07:00am 10.0 7.7 7.6 85 1.2 SE 9 11 5 6 1030.1 1029.1 0.0
16/06:30am 9.2 5.7 7.2 87 1.0 SSE 15 19 8 10 1029.8 1028.7 0.0
16/06:00am 9.6 6.1 7.2 85 1.1 SE 15 19 8 10 1029.4 1028.4 0.0
16/05:30am 9.9 6.0 7.2 83 1.3 SE 17 20 9 11 1029.0 1028.0 0.0
16/05:00am 10.4 6.6 7.5 82 1.4 SE 17 20 9 11 1029.0 1028.0 0.0
16/04:30am 10.4 6.2 7.6 83 1.4 SE 19 24 10 13 1028.6 1027.6 0.0
16/04:00am 10.6 6.3 7.8 83 1.4 SE 20 26 11 14 1028.4 1027.4 0.0
16/03:30am 10.7 6.0 7.9 83 1.4 SE 22 28 12 15 1028.2 1027.2 0.0
16/03:00am 10.9 6.9 8.1 83 1.4 ESE 19 26 10 14 1028.2 1027.2 0.0
16/02:30am 11.2 7.6 8.2 82 1.5 ESE 17 22 9 12 1028.4 1027.4 0.0
16/02:00am 11.6 8.0 8.3 80 1.6 ESE 17 20 9 11 1028.9 1027.9 0.0
16/01:30am 12.1 8.5 8.4 78 1.9 ESE 17 20 9 11 1029.5 1028.5 0.0
16/01:00am 12.4 8.4 8.3 76 2.1 SE 19 30 10 16 1029.5 1028.5 0.0
16/12:30am 12.6 8.0 8.3 75 2.2 SE 22 28 12 15 1029.1 1028.1 0.0
16/12:00am 12.8 8.0 8.7 76 2.1 SE 24 32 13 17 1028.7 1027.7 0.0
 
Date/Time
WST
Temp
°C
App
Temp
°C
Dew
Point
Rel
Hum
%
Delta-T
°C
Wind Press
QNH
hPa
Press
MSL
hPa
Rain
since 9 am
mm
Dir
 
Spd
km/h
Gust
km/h
Spd
kts
Gust
kts
15/11:30pm 13.1 7.2 9.0 76 2.1 ESE 30 39 16 21 1028.6 1027.6 0.0
15/11:00pm 13.5 7.6 9.2 75 2.2 ESE 30 37 16 20 1028.3 1027.3 0.0
15/10:30pm 14.0 8.6 9.4 74 2.4 ESE 28 37 15 20 1028.2 1027.2 0.0
15/10:00pm 14.4 9.0 9.4 72 2.6 ESE 28 41 15 22 1027.8 1026.8 0.0
15/09:30pm 14.8 10.2 9.8 72 2.6 ESE 24 32 13 17 1027.7 1026.7 0.0
15/09:00pm 15.3 10.4 9.9 70 2.8 ESE 26 32 14 17 1027.2 1026.1 0.0
15/08:30pm 15.6 11.4 9.7 68 3.1 SE 22 30 12 16 1027.1 1026.0 0.0
15/08:00pm 16.1 12.2 9.3 64 3.6 SE 20 24 11 13 1026.8 1025.7 0.0
15/07:30pm 16.6 12.8 9.1 61 3.9 SE 19 24 10 13 1026.3 1025.3 0.0
15/07:00pm 17.1 13.2 9.3 60 4.1 SE 20 26 11 14 1025.8 1024.8 0.0
15/06:30pm 17.4 14.6 10.1 62 3.9 SE 15 19 8 10 1025.4 1024.4 0.0
15/06:00pm 18.5 13.9 9.6 56 4.8 SE 24 32 13 17 1025.0 1024.0 0.0
15/05:30pm 19.0 13.9 9.2 53 5.2 SE 26 33 14 18 1024.6 1023.5 0.0
15/05:00pm 19.5 14.2 9.7 53 5.3 SE 28 33 15 18 1024.2 1023.1 0.0

Other Formats:

Comma delimited format used in spreadsheet applications
http://www.bom.gov.au/fwo/IDW60801/IDW60801.95634.axf

JavaScript Object Notation format (JSON) in row-major order
http://www.bom.gov.au/fwo/IDW60801/IDW60801.95634.json